Terminal Aerodrome Forecast
Issued by NWS Jackson, MS

Home | Current Version | Previous Version | Text Only | Print | Product List | Glossary On
Versions: 1 2 3 4 5 6 7 8 9 10 11 12 13
564
FTUS44 KJAN 221120
TAFJAN
TAF
KJAN 221120Z 2212/2312 15015G25KT P6SM -RA SCT100 OVC200
     FM221330 14013G20KT 5SM -RA BR BKN030 OVC070
     FM221500 28020G25KT 2SM TSRA BR BKN020 OVC030CB
     FM221700 23012G17KT 4SM RA BR OVC025
     FM230000 35006KT P6SM VCSH BKN015 OVC020
     FM230400 33005KT P6SM OVC007=

USA.gov is the U.S. government's official web portal to all federal, state and local government web resources and services.